createdAt,value
2023-01-13T00:10:47.566Z,7.28
2023-01-13T00:30:48.097Z,7.29
2023-01-13T00:50:48.495Z,7.31
2023-01-13T01:10:48.471Z,7.31
2023-01-13T01:30:48.697Z,7.33
2023-01-13T01:50:48.583Z,7.33
2023-01-13T02:10:48.576Z,7.34
2023-01-13T02:30:48.578Z,7.34
2023-01-13T02:50:48.051Z,7.35
2023-01-13T03:10:48.562Z,7.35
2023-01-13T03:30:48.624Z,7.35
2023-01-13T03:50:48.559Z,7.35
2023-01-13T04:10:48.553Z,7.35
2023-01-13T04:30:48.554Z,7.36
2023-01-13T04:50:48.547Z,7.36
2023-01-13T05:10:48.548Z,7.36
2023-01-13T05:30:48.557Z,7.36
2023-01-13T06:10:47.762Z,7.36
2023-01-13T06:30:48.516Z,7.36
2023-01-13T06:50:48.502Z,7.36
2023-01-13T07:10:48.005Z,7.36
2023-01-13T07:30:48.516Z,7.35
2023-01-13T07:50:48.383Z,7.35
2023-01-13T08:10:47.977Z,7.35
2023-01-13T08:30:48.538Z,7.35
2023-01-13T08:50:48.508Z,7.35
2023-01-13T09:30:48.506Z,7.34
2023-01-13T10:50:47.719Z,7.32
2023-01-13T11:10:48.318Z,7.31
2023-01-13T11:50:48.429Z,7.29
2023-01-13T12:30:48.415Z,7.28
2023-01-13T14:30:47.862Z,7.25
2023-01-13T14:50:48.327Z,7.25
2023-01-13T15:30:48.353Z,7.25
2023-01-13T15:50:48.296Z,7.24
2023-01-13T16:10:48.202Z,7.24
2023-01-13T17:10:48.295Z,7.24
2023-01-13T17:30:47.576Z,7.23
2023-01-13T17:50:48.394Z,7.23
2023-01-13T18:10:48.330Z,7.22
2023-01-13T19:30:48.386Z,7.2
2023-01-13T21:10:48.278Z,7.16
2023-01-13T22:10:48.271Z,7.15
2023-01-13T22:30:48.261Z,7.15
2023-01-13T22:50:48.130Z,7.14
2023-01-13T23:10:48.264Z,7.14
2023-01-13T23:30:48.307Z,7.14
